sensor_id;sensor_type;location;lat;lon;timestamp;temperature;humidity
28171;DHT22;15458;53.346;-1.688;2023-06-24T00:02:15;17.90;99.90
28171;DHT22;15458;53.346;-1.688;2023-06-24T00:04:41;17.90;99.90
28171;DHT22;15458;53.346;-1.688;2023-06-24T00:07:07;17.90;99.90
28171;DHT22;15458;53.346;-1.688;2023-06-24T00:09:32;17.90;99.90
28171;DHT22;15458;53.346;-1.688;2023-06-24T00:11:59;17.90;99.90
28171;DHT22;15458;53.346;-1.688;2023-06-24T00:14:26;17.90;99.90
28171;DHT22;15458;53.346;-1.688;2023-06-24T00:16:55;17.90;99.90
28171;DHT22;15458;53.346;-1.688;2023-06-24T00:19:26;17.90;99.90
28171;DHT22;15458;53.346;-1.688;2023-06-24T00:21:53;17.90;99.90
28171;DHT22;15458;53.346;-1.688;2023-06-24T00:24:22;17.90;99.90
28171;DHT22;15458;53.346;-1.688;2023-06-24T00:26:54;17.90;99.90
28171;DHT22;15458;53.346;-1.688;2023-06-24T00:29:20;17.90;99.90
28171;DHT22;15458;53.346;-1.688;2023-06-24T00:31:46;17.90;99.90
28171;DHT22;15458;53.346;-1.688;2023-06-24T00:34:12;18.00;99.90
28171;DHT22;15458;53.346;-1.688;2023-06-24T00:36:38;18.00;99.90
28171;DHT22;15458;53.346;-1.688;2023-06-24T00:39:04;18.00;99.90
28171;DHT22;15458;53.346;-1.688;2023-06-24T00:41:31;18.00;99.90
28171;DHT22;15458;53.346;-1.688;2023-06-24T00:43:58;18.00;99.90
28171;DHT22;15458;53.346;-1.688;2023-06-24T00:46:27;18.00;99.90
28171;DHT22;15458;53.346;-1.688;2023-06-24T00:48:55;18.00;99.90
28171;DHT22;15458;53.346;-1.688;2023-06-24T00:51:21;18.00;99.90
28171;DHT22;15458;53.346;-1.688;2023-06-24T00:53:52;18.00;99.90
28171;DHT22;15458;53.346;-1.688;2023-06-24T00:56:30;18.00;99.90
28171;DHT22;15458;53.346;-1.688;2023-06-24T00:58:58;18.00;99.90
28171;DHT22;15458;53.346;-1.688;2023-06-24T01:01:28;18.00;99.90
28171;DHT22;15458;53.346;-1.688;2023-06-24T01:03:55;18.00;99.90
28171;DHT22;15458;53.346;-1.688;2023-06-24T01:06:21;18.10;99.90
28171;DHT22;15458;53.346;-1.688;2023-06-24T01:08:47;18.10;99.90
28171;DHT22;15458;53.346;-1.688;2023-06-24T01:11:16;18.10;99.90
28171;DHT22;15458;53.346;-1.688;2023-06-24T01:13:42;18.10;99.90
28171;DHT22;15458;53.346;-1.688;2023-06-24T01:16:11;18.10;99.90
28171;DHT22;15458;53.346;-1.688;2023-06-24T01:18:44;18.10;99.90
28171;DHT22;15458;53.346;-1.688;2023-06-24T01:29:52;18.00;99.90
28171;DHT22;15458;53.346;-1.688;2023-06-24T01:32:29;18.00;99.90
28171;DHT22;15458;53.346;-1.688;2023-06-24T01:35:05;18.00;99.90
28171;DHT22;15458;53.346;-1.688;2023-06-24T01:37:45;17.90;99.90
28171;DHT22;15458;53.346;-1.688;2023-06-24T01:40:24;17.90;99.90
28171;DHT22;15458;53.346;-1.688;2023-06-24T01:42:52;17.90;99.90
28171;DHT22;15458;53.346;-1.688;2023-06-24T01:45:30;17.80;99.90
28171;DHT22;15458;53.346;-1.688;2023-06-24T01:48:18;17.80;99.90
28171;DHT22;15458;53.346;-1.688;2023-06-24T01:51:23;17.80;99.90
28171;DHT22;15458;53.346;-1.688;2023-06-24T01:53:57;17.80;99.90
28171;DHT22;15458;53.346;-1.688;2023-06-24T01:56:25;17.70;99.90
28171;DHT22;15458;53.346;-1.688;2023-06-24T01:58:53;17.70;99.90
28171;DHT22;15458;53.346;-1.688;2023-06-24T02:01:20;17.70;99.90
28171;DHT22;15458;53.346;-1.688;2023-06-24T02:03:46;17.70;99.90
28171;DHT22;15458;53.346;-1.688;2023-06-24T02:06:14;17.70;99.90
28171;DHT22;15458;53.346;-1.688;2023-06-24T02:08:41;17.70;99.90
28171;DHT22;15458;53.346;-1.688;2023-06-24T02:11:09;17.60;99.90
28171;DHT22;15458;53.346;-1.688;2023-06-24T02:13:36;17.60;99.90
28171;DHT22;15458;53.346;-1.688;2023-06-24T02:16:06;17.70;99.90
28171;DHT22;15458;53.346;-1.688;2023-06-24T02:18:38;17.60;99.90
28171;DHT22;15458;53.346;-1.688;2023-06-24T02:21:08;17.60;99.90
28171;DHT22;15458;53.346;-1.688;2023-06-24T02:23:35;17.60;99.90
28171;DHT22;15458;53.346;-1.688;2023-06-24T02:26:03;17.70;99.90
28171;DHT22;15458;53.346;-1.688;2023-06-24T02:28:31;17.70;99.90
28171;DHT22;15458;53.346;-1.688;2023-06-24T02:30:58;17.70;99.90
28171;DHT22;15458;53.346;-1.688;2023-06-24T02:33:25;17.60;99.90
28171;DHT22;15458;53.346;-1.688;2023-06-24T02:35:52;17.70;99.90
28171;DHT22;15458;53.346;-1.688;2023-06-24T02:38:18;17.70;99.90
28171;DHT22;15458;53.346;-1.688;2023-06-24T02:40:45;17.70;99.90
28171;DHT22;15458;53.346;-1.688;2023-06-24T02:43:11;17.70;99.90
28171;DHT22;15458;53.346;-1.688;2023-06-24T02:45:37;17.70;99.90
28171;DHT22;15458;53.346;-1.688;2023-06-24T02:48:04;17.70;99.90
28171;DHT22;15458;53.346;-1.688;2023-06-24T02:50:31;17.70;99.90
28171;DHT22;15458;53.346;-1.688;2023-06-24T02:52:57;17.70;99.90
28171;DHT22;15458;53.346;-1.688;2023-06-24T02:55:24;17.70;99.90
28171;DHT22;15458;53.346;-1.688;2023-06-24T02:57:50;17.70;99.90
28171;DHT22;15458;53.346;-1.688;2023-06-24T03:00:16;17.70;99.90
28171;DHT22;15458;53.346;-1.688;2023-06-24T03:02:43;17.70;99.90
28171;DHT22;15458;53.346;-1.688;2023-06-24T03:05:10;17.70;99.90
28171;DHT22;15458;53.346;-1.688;2023-06-24T03:07:37;17.80;99.90
28171;DHT22;15458;53.346;-1.688;2023-06-24T03:10:04;17.80;99.90
28171;DHT22;15458;53.346;-1.688;2023-06-24T03:12:33;17.80;99.90
28171;DHT22;15458;53.346;-1.688;2023-06-24T03:14:59;17.90;99.90
28171;DHT22;15458;53.346;-1.688;2023-06-24T03:17:26;17.90;99.90
28171;DHT22;15458;53.346;-1.688;2023-06-24T03:19:52;17.90;99.90
28171;DHT22;15458;53.346;-1.688;2023-06-24T03:22:18;17.90;99.90
28171;DHT22;15458;53.346;-1.688;2023-06-24T03:24:43;17.90;99.90
28171;DHT22;15458;53.346;-1.688;2023-06-24T03:27:09;17.90;99.90
28171;DHT22;15458;53.346;-1.688;2023-06-24T03:29:35;17.90;99.90
28171;DHT22;15458;53.346;-1.688;2023-06-24T03:32:01;17.90;99.90
28171;DHT22;15458;53.346;-1.688;2023-06-24T03:34:27;17.90;99.90
28171;DHT22;15458;53.346;-1.688;2023-06-24T03:36:53;17.90;99.90
28171;DHT22;15458;53.346;-1.688;2023-06-24T03:39:22;17.90;99.90
28171;DHT22;15458;53.346;-1.688;2023-06-24T03:41:48;17.90;99.90
28171;DHT22;15458;53.346;-1.688;2023-06-24T03:44:14;17.90;99.90
28171;DHT22;15458;53.346;-1.688;2023-06-24T03:46:40;18.00;99.90
28171;DHT22;15458;53.346;-1.688;2023-06-24T03:49:05;18.00;99.90
28171;DHT22;15458;53.346;-1.688;2023-06-24T03:51:32;18.00;99.90
28171;DHT22;15458;53.346;-1.688;2023-06-24T03:53:58;18.00;99.90
28171;DHT22;15458;53.346;-1.688;2023-06-24T03:56:23;18.00;99.90
28171;DHT22;15458;53.346;-1.688;2023-06-24T03:58:49;18.00;99.90
28171;DHT22;15458;53.346;-1.688;2023-06-24T04:01:15;18.00;99.90
28171;DHT22;15458;53.346;-1.688;2023-06-24T04:03:43;18.00;99.90
28171;DHT22;15458;53.346;-1.688;2023-06-24T04:06:08;18.00;99.90
28171;DHT22;15458;53.346;-1.688;2023-06-24T04:08:34;18.00;99.90
28171;DHT22;15458;53.346;-1.688;2023-06-24T04:11:00;17.90;99.90
28171;DHT22;15458;53.346;-1.688;2023-06-24T04:13:26;17.90;99.90
28171;DHT22;15458;53.346;-1.688;2023-06-24T04:15:51;17.90;99.90
28171;DHT22;15458;53.346;-1.688;2023-06-24T04:18:18;17.90;99.90
28171;DHT22;15458;53.346;-1.688;2023-06-24T04:20:44;17.90;99.90
28171;DHT22;15458;53.346;-1.688;2023-06-24T04:23:10;17.90;99.90
28171;DHT22;15458;53.346;-1.688;2023-06-24T04:25:36;17.90;99.90
28171;DHT22;15458;53.346;-1.688;2023-06-24T04:28:03;17.90;99.90
28171;DHT22;15458;53.346;-1.688;2023-06-24T04:30:30;17.90;99.90
28171;DHT22;15458;53.346;-1.688;2023-06-24T04:32:56;17.90;99.90
28171;DHT22;15458;53.346;-1.688;2023-06-24T04:35:22;18.00;99.90
28171;DHT22;15458;53.346;-1.688;2023-06-24T04:37:48;17.90;99.90
28171;DHT22;15458;53.346;-1.688;2023-06-24T04:40:17;17.90;99.90
28171;DHT22;15458;53.346;-1.688;2023-06-24T04:42:45;18.00;99.90
28171;DHT22;15458;53.346;-1.688;2023-06-24T04:45:11;18.00;99.90
28171;DHT22;15458;53.346;-1.688;2023-06-24T04:47:37;18.00;99.90
28171;DHT22;15458;53.346;-1.688;2023-06-24T04:50:03;18.00;99.90
28171;DHT22;15458;53.346;-1.688;2023-06-24T04:52:29;18.00;99.90
28171;DHT22;15458;53.346;-1.688;2023-06-24T04:54:55;18.00;99.90
28171;DHT22;15458;53.346;-1.688;2023-06-24T04:57:29;18.10;99.90
28171;DHT22;15458;53.346;-1.688;2023-06-24T04:59:56;18.10;99.90
28171;DHT22;15458;53.346;-1.688;2023-06-24T05:02:22;18.10;99.90
28171;DHT22;15458;53.346;-1.688;2023-06-24T05:04:47;18.10;99.90
28171;DHT22;15458;53.346;-1.688;2023-06-24T05:07:13;18.10;99.90
28171;DHT22;15458;53.346;-1.688;2023-06-24T05:09:39;18.10;99.90
28171;DHT22;15458;53.346;-1.688;2023-06-24T05:12:05;18.10;99.90
28171;DHT22;15458;53.346;-1.688;2023-06-24T05:14:33;18.10;99.90
28171;DHT22;15458;53.346;-1.688;2023-06-24T05:16:59;18.10;99.90
28171;DHT22;15458;53.346;-1.688;2023-06-24T05:19:24;18.10;99.90
28171;DHT22;15458;53.346;-1.688;2023-06-24T05:21:50;18.20;99.90
28171;DHT22;15458;53.346;-1.688;2023-06-24T05:24:16;18.20;99.90
28171;DHT22;15458;53.346;-1.688;2023-06-24T05:26:41;18.20;99.90
28171;DHT22;15458;53.346;-1.688;2023-06-24T05:29:07;18.20;99.90
28171;DHT22;15458;53.346;-1.688;2023-06-24T05:31:32;18.20;99.90
28171;DHT22;15458;53.346;-1.688;2023-06-24T05:33:58;18.20;99.90
28171;DHT22;15458;53.346;-1.688;2023-06-24T05:36:24;18.20;99.90
28171;DHT22;15458;53.346;-1.688;2023-06-24T05:38:49;18.20;99.90
28171;DHT22;15458;53.346;-1.688;2023-06-24T05:41:15;18.20;99.90
28171;DHT22;15458;53.346;-1.688;2023-06-24T05:43:43;18.20;99.90
28171;DHT22;15458;53.346;-1.688;2023-06-24T05:46:09;18.30;99.90
28171;DHT22;15458;53.346;-1.688;2023-06-24T05:48:34;18.30;99.90
28171;DHT22;15458;53.346;-1.688;2023-06-24T05:51:00;18.30;99.90
28171;DHT22;15458;53.346;-1.688;2023-06-24T05:53:26;18.30;99.90
28171;DHT22;15458;53.346;-1.688;2023-06-24T05:55:51;18.30;99.90
28171;DHT22;15458;53.346;-1.688;2023-06-24T05:58:17;18.30;99.90
28171;DHT22;15458;53.346;-1.688;2023-06-24T06:00:42;18.40;99.90
28171;DHT22;15458;53.346;-1.688;2023-06-24T06:03:08;18.50;99.90
28171;DHT22;15458;53.346;-1.688;2023-06-24T06:05:34;18.50;99.90
28171;DHT22;15458;53.346;-1.688;2023-06-24T06:08:00;18.50;99.90
28171;DHT22;15458;53.346;-1.688;2023-06-24T06:10:26;18.60;99.90
28171;DHT22;15458;53.346;-1.688;2023-06-24T06:12:51;18.60;99.90
28171;DHT22;15458;53.346;-1.688;2023-06-24T06:15:19;18.70;99.90
28171;DHT22;15458;53.346;-1.688;2023-06-24T06:17:45;18.70;99.90
28171;DHT22;15458;53.346;-1.688;2023-06-24T06:20:11;18.80;99.90
28171;DHT22;15458;53.346;-1.688;2023-06-24T06:22:37;18.80;99.90
28171;DHT22;15458;53.346;-1.688;2023-06-24T06:25:07;18.80;99.90
28171;DHT22;15458;53.346;-1.688;2023-06-24T06:27:33;18.90;99.90
28171;DHT22;15458;53.346;-1.688;2023-06-24T06:29:59;18.90;99.90
28171;DHT22;15458;53.346;-1.688;2023-06-24T06:32:25;18.90;99.90
28171;DHT22;15458;53.346;-1.688;2023-06-24T06:34:50;19.00;99.90
28171;DHT22;15458;53.346;-1.688;2023-06-24T06:37:16;19.00;99.90
28171;DHT22;15458;53.346;-1.688;2023-06-24T06:39:42;19.10;99.90
28171;DHT22;15458;53.346;-1.688;2023-06-24T06:42:08;19.10;99.90
28171;DHT22;15458;53.346;-1.688;2023-06-24T06:44:33;19.10;99.90
28171;DHT22;15458;53.346;-1.688;2023-06-24T06:46:59;19.20;99.90
28171;DHT22;15458;53.346;-1.688;2023-06-24T06:49:24;19.20;99.90
28171;DHT22;15458;53.346;-1.688;2023-06-24T06:51:53;19.30;99.90
28171;DHT22;15458;53.346;-1.688;2023-06-24T06:54:19;19.30;99.90
28171;DHT22;15458;53.346;-1.688;2023-06-24T06:56:45;19.30;99.90
28171;DHT22;15458;53.346;-1.688;2023-06-24T06:59:11;19.30;99.90
28171;DHT22;15458;53.346;-1.688;2023-06-24T07:01:36;19.40;99.90
28171;DHT22;15458;53.346;-1.688;2023-06-24T07:04:02;19.40;99.90
28171;DHT22;15458;53.346;-1.688;2023-06-24T07:06:28;19.50;99.90
28171;DHT22;15458;53.346;-1.688;2023-06-24T07:08:53;19.50;99.90
28171;DHT22;15458;53.346;-1.688;2023-06-24T07:11:19;19.60;99.90
28171;DHT22;15458;53.346;-1.688;2023-06-24T07:13:45;19.60;99.90
28171;DHT22;15458;53.346;-1.688;2023-06-24T07:16:11;19.70;99.90
28171;DHT22;15458;53.346;-1.688;2023-06-24T07:18:37;19.80;99.90
28171;DHT22;15458;53.346;-1.688;2023-06-24T07:21:03;19.80;99.90
28171;DHT22;15458;53.346;-1.688;2023-06-24T07:23:28;19.80;99.90
28171;DHT22;15458;53.346;-1.688;2023-06-24T07:25:54;19.90;99.90
28171;DHT22;15458;53.346;-1.688;2023-06-24T07:28:20;20.00;99.90
28171;DHT22;15458;53.346;-1.688;2023-06-24T07:30:45;20.00;99.90
28171;DHT22;15458;53.346;-1.688;2023-06-24T07:33:11;20.10;99.90
28171;DHT22;15458;53.346;-1.688;2023-06-24T07:35:37;20.10;99.90
28171;DHT22;15458;53.346;-1.688;2023-06-24T07:38:02;20.10;99.90
28171;DHT22;15458;53.346;-1.688;2023-06-24T07:40:28;20.10;99.90
28171;DHT22;15458;53.346;-1.688;2023-06-24T07:42:54;20.20;99.90
28171;DHT22;15458;53.346;-1.688;2023-06-24T07:45:20;20.30;99.90
28171;DHT22;15458;53.346;-1.688;2023-06-24T07:47:45;20.40;99.90
28171;DHT22;15458;53.346;-1.688;2023-06-24T07:50:11;20.50;99.90
28171;DHT22;15458;53.346;-1.688;2023-06-24T07:52:37;20.40;99.90
28171;DHT22;15458;53.346;-1.688;2023-06-24T07:55:03;20.50;99.90
28171;DHT22;15458;53.346;-1.688;2023-06-24T07:57:30;20.40;99.90
28171;DHT22;15458;53.346;-1.688;2023-06-24T07:59:55;20.40;99.90
28171;DHT22;15458;53.346;-1.688;2023-06-24T08:02:21;20.40;99.90
28171;DHT22;15458;53.346;-1.688;2023-06-24T08:04:49;20.40;99.90
28171;DHT22;15458;53.346;-1.688;2023-06-24T08:07:15;20.50;99.90
28171;DHT22;15458;53.346;-1.688;2023-06-24T08:09:41;20.50;99.90
28171;DHT22;15458;53.346;-1.688;2023-06-24T08:12:07;20.60;99.90
28171;DHT22;15458;53.346;-1.688;2023-06-24T08:14:32;20.60;99.90
28171;DHT22;15458;53.346;-1.688;2023-06-24T08:16:58;20.60;99.90
28171;DHT22;15458;53.346;-1.688;2023-06-24T08:19:24;20.70;99.90
28171;DHT22;15458;53.346;-1.688;2023-06-24T08:21:49;20.70;99.90
28171;DHT22;15458;53.346;-1.688;2023-06-24T08:24:15;20.80;99.90
28171;DHT22;15458;53.346;-1.688;2023-06-24T08:26:41;20.80;99.90
28171;DHT22;15458;53.346;-1.688;2023-06-24T08:29:06;20.80;99.90
28171;DHT22;15458;53.346;-1.688;2023-06-24T08:31:33;20.90;99.90
28171;DHT22;15458;53.346;-1.688;2023-06-24T08:34:01;20.90;99.90
28171;DHT22;15458;53.346;-1.688;2023-06-24T08:36:33;21.00;99.90
28171;DHT22;15458;53.346;-1.688;2023-06-24T08:38:59;21.10;99.90
28171;DHT22;15458;53.346;-1.688;2023-06-24T08:41:25;21.10;99.90
28171;DHT22;15458;53.346;-1.688;2023-06-24T08:43:51;21.20;99.90
28171;DHT22;15458;53.346;-1.688;2023-06-24T08:46:18;21.20;99.90
28171;DHT22;15458;53.346;-1.688;2023-06-24T08:48:45;21.20;99.90
28171;DHT22;15458;53.346;-1.688;2023-06-24T08:51:15;21.30;99.90
28171;DHT22;15458;53.346;-1.688;2023-06-24T08:53:43;21.30;99.90
28171;DHT22;15458;53.346;-1.688;2023-06-24T08:56:10;21.40;99.90
28171;DHT22;15458;53.346;-1.688;2023-06-24T08:58:36;21.40;99.90
28171;DHT22;15458;53.346;-1.688;2023-06-24T09:01:02;21.40;99.90
28171;DHT22;15458;53.346;-1.688;2023-06-24T09:03:28;21.50;99.90
28171;DHT22;15458;53.346;-1.688;2023-06-24T09:05:54;21.50;99.90
28171;DHT22;15458;53.346;-1.688;2023-06-24T09:08:20;21.60;99.90
28171;DHT22;15458;53.346;-1.688;2023-06-24T09:10:53;21.60;99.90
28171;DHT22;15458;53.346;-1.688;2023-06-24T09:13:20;21.70;99.90
28171;DHT22;15458;53.346;-1.688;2023-06-24T09:15:45;21.80;99.90
28171;DHT22;15458;53.346;-1.688;2023-06-24T09:18:11;21.90;99.90
28171;DHT22;15458;53.346;-1.688;2023-06-24T09:20:41;21.90;99.90
28171;DHT22;15458;53.346;-1.688;2023-06-24T09:23:10;22.00;99.90
28171;DHT22;15458;53.346;-1.688;2023-06-24T09:25:36;22.10;99.90
28171;DHT22;15458;53.346;-1.688;2023-06-24T09:28:02;22.10;99.90
28171;DHT22;15458;53.346;-1.688;2023-06-24T09:30:29;22.10;99.90
28171;DHT22;15458;53.346;-1.688;2023-06-24T09:32:55;22.10;99.90
28171;DHT22;15458;53.346;-1.688;2023-06-24T09:35:25;22.20;99.90
28171;DHT22;15458;53.346;-1.688;2023-06-24T09:37:55;22.20;99.90
28171;DHT22;15458;53.346;-1.688;2023-06-24T09:40:21;22.30;99.90
28171;DHT22;15458;53.346;-1.688;2023-06-24T09:42:56;22.50;99.90
28171;DHT22;15458;53.346;-1.688;2023-06-24T09:45:26;22.50;99.90
28171;DHT22;15458;53.346;-1.688;2023-06-24T09:47:53;22.60;99.90
28171;DHT22;15458;53.346;-1.688;2023-06-24T09:50:20;22.70;99.90
28171;DHT22;15458;53.346;-1.688;2023-06-24T09:52:46;22.70;99.90
28171;DHT22;15458;53.346;-1.688;2023-06-24T09:55:14;22.90;99.90
28171;DHT22;15458;53.346;-1.688;2023-06-24T09:57:42;22.90;99.90
28171;DHT22;15458;53.346;-1.688;2023-06-24T10:00:10;22.90;99.90
28171;DHT22;15458;53.346;-1.688;2023-06-24T10:02:36;22.90;99.90
28171;DHT22;15458;53.346;-1.688;2023-06-24T10:05:03;22.80;99.90
28171;DHT22;15458;53.346;-1.688;2023-06-24T10:07:31;22.80;99.90
28171;DHT22;15458;53.346;-1.688;2023-06-24T10:09:57;22.70;99.90
28171;DHT22;15458;53.346;-1.688;2023-06-24T10:12:22;22.70;99.90
28171;DHT22;15458;53.346;-1.688;2023-06-24T10:14:52;22.70;99.90
28171;DHT22;15458;53.346;-1.688;2023-06-24T10:17:18;22.80;99.90
28171;DHT22;15458;53.346;-1.688;2023-06-24T10:19:44;22.90;99.90
28171;DHT22;15458;53.346;-1.688;2023-06-24T10:22:11;23.00;99.90
28171;DHT22;15458;53.346;-1.688;2023-06-24T10:24:41;23.10;99.90
28171;DHT22;15458;53.346;-1.688;2023-06-24T10:27:08;23.20;99.90
28171;DHT22;15458;53.346;-1.688;2023-06-24T10:29:37;23.30;99.90
28171;DHT22;15458;53.346;-1.688;2023-06-24T10:32:05;23.30;99.90
28171;DHT22;15458;53.346;-1.688;2023-06-24T10:34:45;23.40;99.90
28171;DHT22;15458;53.346;-1.688;2023-06-24T10:42:30;23.20;99.90
28171;DHT22;15458;53.346;-1.688;2023-06-24T10:45:21;23.10;99.90
28171;DHT22;15458;53.346;-1.688;2023-06-24T10:47:50;23.10;99.90
28171;DHT22;15458;53.346;-1.688;2023-06-24T10:50:22;23.10;99.90
28171;DHT22;15458;53.346;-1.688;2023-06-24T10:52:50;23.10;99.90
28171;DHT22;15458;53.346;-1.688;2023-06-24T10:55:23;23.10;99.90
28171;DHT22;15458;53.346;-1.688;2023-06-24T10:57:50;23.20;99.90
28171;DHT22;15458;53.346;-1.688;2023-06-24T11:00:16;23.20;99.90
28171;DHT22;15458;53.346;-1.688;2023-06-24T11:02:42;23.30;99.90
28171;DHT22;15458;53.346;-1.688;2023-06-24T11:05:08;23.30;99.90
28171;DHT22;15458;53.346;-1.688;2023-06-24T11:07:35;23.30;99.90
28171;DHT22;15458;53.346;-1.688;2023-06-24T11:10:11;23.40;99.90
28171;DHT22;15458;53.346;-1.688;2023-06-24T11:12:38;23.50;99.90
28171;DHT22;15458;53.346;-1.688;2023-06-24T11:15:06;23.40;99.90
28171;DHT22;15458;53.346;-1.688;2023-06-24T11:17:35;23.50;99.90
28171;DHT22;15458;53.346;-1.688;2023-06-24T11:20:06;23.50;99.90
28171;DHT22;15458;53.346;-1.688;2023-06-24T11:22:32;23.70;99.90
28171;DHT22;15458;53.346;-1.688;2023-06-24T11:24:57;23.80;99.90
28171;DHT22;15458;53.346;-1.688;2023-06-24T11:27:26;23.90;99.90
28171;DHT22;15458;53.346;-1.688;2023-06-24T11:29:54;24.10;99.90
28171;DHT22;15458;53.346;-1.688;2023-06-24T11:32:19;24.20;99.90
28171;DHT22;15458;53.346;-1.688;2023-06-24T11:34:46;24.30;99.90
28171;DHT22;15458;53.346;-1.688;2023-06-24T11:37:13;24.30;99.90
28171;DHT22;15458;53.346;-1.688;2023-06-24T11:39:39;24.30;99.90
28171;DHT22;15458;53.346;-1.688;2023-06-24T11:42:09;24.30;99.90
28171;DHT22;15458;53.346;-1.688;2023-06-24T11:44:35;24.30;99.90
28171;DHT22;15458;53.346;-1.688;2023-06-24T11:47:06;24.40;99.90
28171;DHT22;15458;53.346;-1.688;2023-06-24T11:49:31;24.50;99.90
28171;DHT22;15458;53.346;-1.688;2023-06-24T11:51:57;24.60;99.90
28171;DHT22;15458;53.346;-1.688;2023-06-24T11:54:23;24.80;99.90
28171;DHT22;15458;53.346;-1.688;2023-06-24T11:56:52;25.00;99.90
28171;DHT22;15458;53.346;-1.688;2023-06-24T11:59:22;25.10;99.60
28171;DHT22;15458;53.346;-1.688;2023-06-24T12:01:55;25.20;98.30
28171;DHT22;15458;53.346;-1.688;2023-06-24T12:04:22;25.30;97.90
28171;DHT22;15458;53.346;-1.688;2023-06-24T12:06:52;25.50;97.80
28171;DHT22;15458;53.346;-1.688;2023-06-24T12:09:18;25.70;97.30
28171;DHT22;15458;53.346;-1.688;2023-06-24T12:11:43;25.80;96.30
28171;DHT22;15458;53.346;-1.688;2023-06-24T12:14:09;25.90;94.20
28171;DHT22;15458;53.346;-1.688;2023-06-24T12:16:35;26.10;93.80
28171;DHT22;15458;53.346;-1.688;2023-06-24T12:19:01;26.30;93.00
28171;DHT22;15458;53.346;-1.688;2023-06-24T12:21:27;26.60;92.50
28171;DHT22;15458;53.346;-1.688;2023-06-24T12:23:53;26.80;91.80
28171;DHT22;15458;53.346;-1.688;2023-06-24T12:26:18;26.90;90.80
28171;DHT22;15458;53.346;-1.688;2023-06-24T12:28:44;27.00;89.90
28171;DHT22;15458;53.346;-1.688;2023-06-24T12:31:10;27.10;88.90
28171;DHT22;15458;53.346;-1.688;2023-06-24T12:33:36;27.30;86.30
28171;DHT22;15458;53.346;-1.688;2023-06-24T12:36:02;27.30;84.10
28171;DHT22;15458;53.346;-1.688;2023-06-24T12:38:27;27.40;82.10
28171;DHT22;15458;53.346;-1.688;2023-06-24T12:40:53;27.50;81.20
28171;DHT22;15458;53.346;-1.688;2023-06-24T12:43:22;27.50;80.70
28171;DHT22;15458;53.346;-1.688;2023-06-24T12:45:48;27.50;80.60
28171;DHT22;15458;53.346;-1.688;2023-06-24T12:48:14;27.60;80.40
28171;DHT22;15458;53.346;-1.688;2023-06-24T12:50:39;27.70;80.30
28171;DHT22;15458;53.346;-1.688;2023-06-24T12:53:05;28.00;80.10
28171;DHT22;15458;53.346;-1.688;2023-06-24T12:55:31;28.40;78.60
28171;DHT22;15458;53.346;-1.688;2023-06-24T12:57:57;28.70;77.20
28171;DHT22;15458;53.346;-1.688;2023-06-24T13:00:24;28.90;76.70
28171;DHT22;15458;53.346;-1.688;2023-06-24T13:02:50;28.80;75.50
28171;DHT22;15458;53.346;-1.688;2023-06-24T13:05:16;28.50;75.20
28171;DHT22;15458;53.346;-1.688;2023-06-24T13:07:42;28.30;75.40
28171;DHT22;15458;53.346;-1.688;2023-06-24T13:10:09;28.10;75.50
28171;DHT22;15458;53.346;-1.688;2023-06-24T13:12:35;28.00;75.50
28171;DHT22;15458;53.346;-1.688;2023-06-24T13:15:02;27.90;75.60
28171;DHT22;15458;53.346;-1.688;2023-06-24T13:17:30;27.90;75.80
28171;DHT22;15458;53.346;-1.688;2023-06-24T13:19:56;28.10;75.80
28171;DHT22;15458;53.346;-1.688;2023-06-24T13:22:23;28.30;75.80
28171;DHT22;15458;53.346;-1.688;2023-06-24T13:24:49;28.40;74.80
28171;DHT22;15458;53.346;-1.688;2023-06-24T13:27:14;28.60;74.30
28171;DHT22;15458;53.346;-1.688;2023-06-24T13:29:40;28.60;73.80
28171;DHT22;15458;53.346;-1.688;2023-06-24T13:32:09;28.50;73.60
28171;DHT22;15458;53.346;-1.688;2023-06-24T13:34:35;28.40;74.10
28171;DHT22;15458;53.346;-1.688;2023-06-24T13:37:00;28.20;74.30
28171;DHT22;15458;53.346;-1.688;2023-06-24T13:39:26;28.10;74.30
28171;DHT22;15458;53.346;-1.688;2023-06-24T13:41:53;28.10;73.90
28171;DHT22;15458;53.346;-1.688;2023-06-24T13:44:21;28.00;73.00
28171;DHT22;15458;53.346;-1.688;2023-06-24T13:46:52;28.10;73.40
28171;DHT22;15458;53.346;-1.688;2023-06-24T13:49:20;28.10;72.70
28171;DHT22;15458;53.346;-1.688;2023-06-24T13:51:46;28.20;73.00
28171;DHT22;15458;53.346;-1.688;2023-06-24T13:54:12;28.30;73.10
28171;DHT22;15458;53.346;-1.688;2023-06-24T13:56:37;28.30;73.10
28171;DHT22;15458;53.346;-1.688;2023-06-24T13:59:03;28.30;73.50
28171;DHT22;15458;53.346;-1.688;2023-06-24T14:01:29;28.50;73.60
28171;DHT22;15458;53.346;-1.688;2023-06-24T14:03:55;28.70;73.00
28171;DHT22;15458;53.346;-1.688;2023-06-24T14:06:22;28.80;72.30
28171;DHT22;15458;53.346;-1.688;2023-06-24T14:08:50;28.70;71.90
28171;DHT22;15458;53.346;-1.688;2023-06-24T14:11:16;28.60;72.30
28171;DHT22;15458;53.346;-1.688;2023-06-24T14:13:42;28.40;73.10
28171;DHT22;15458;53.346;-1.688;2023-06-24T14:16:08;28.40;72.70
28171;DHT22;15458;53.346;-1.688;2023-06-24T14:18:34;28.60;73.10
28171;DHT22;15458;53.346;-1.688;2023-06-24T14:21:01;28.70;71.90
28171;DHT22;15458;53.346;-1.688;2023-06-24T14:23:28;29.00;71.70
28171;DHT22;15458;53.346;-1.688;2023-06-24T14:25:54;29.10;70.50
28171;DHT22;15458;53.346;-1.688;2023-06-24T14:28:21;29.10;69.80
28171;DHT22;15458;53.346;-1.688;2023-06-24T14:30:46;29.20;69.60
28171;DHT22;15458;53.346;-1.688;2023-06-24T14:33:13;29.30;69.20
28171;DHT22;15458;53.346;-1.688;2023-06-24T14:35:39;29.30;69.00
28171;DHT22;15458;53.346;-1.688;2023-06-24T14:38:04;29.30;69.00
28171;DHT22;15458;53.346;-1.688;2023-06-24T14:40:31;29.20;69.00
28171;DHT22;15458;53.346;-1.688;2023-06-24T14:42:58;29.10;69.30
28171;DHT22;15458;53.346;-1.688;2023-06-24T14:45:24;29.00;69.50
28171;DHT22;15458;53.346;-1.688;2023-06-24T14:47:49;29.00;70.00
28171;DHT22;15458;53.346;-1.688;2023-06-24T14:50:15;29.20;70.10
28171;DHT22;15458;53.346;-1.688;2023-06-24T14:52:41;29.50;69.60
28171;DHT22;15458;53.346;-1.688;2023-06-24T14:55:07;29.50;69.30
28171;DHT22;15458;53.346;-1.688;2023-06-24T14:57:33;29.70;68.80
28171;DHT22;15458;53.346;-1.688;2023-06-24T14:59:59;29.70;67.90
28171;DHT22;15458;53.346;-1.688;2023-06-24T15:02:25;29.90;67.90
28171;DHT22;15458;53.346;-1.688;2023-06-24T15:04:51;30.10;67.30
28171;DHT22;15458;53.346;-1.688;2023-06-24T15:07:17;30.30;66.80
28171;DHT22;15458;53.346;-1.688;2023-06-24T15:09:43;30.60;66.30
28171;DHT22;15458;53.346;-1.688;2023-06-24T15:12:09;30.70;65.70
28171;DHT22;15458;53.346;-1.688;2023-06-24T15:14:35;30.70;64.20
28171;DHT22;15458;53.346;-1.688;2023-06-24T15:17:00;30.60;63.40
28171;DHT22;15458;53.346;-1.688;2023-06-24T15:19:26;30.50;63.80
28171;DHT22;15458;53.346;-1.688;2023-06-24T15:21:52;30.40;63.70
28171;DHT22;15458;53.346;-1.688;2023-06-24T15:24:18;30.20;64.50
28171;DHT22;15458;53.346;-1.688;2023-06-24T15:26:43;30.20;64.20
28171;DHT22;15458;53.346;-1.688;2023-06-24T15:29:09;30.30;64.40